sensor_id;sensor_type;location;lat;lon;timestamp;temperature;humidity
17495;DHT22;8864;51.970;4.614;2022-10-17T00:00:44;19.90;77.60
17495;DHT22;8864;51.970;4.614;2022-10-17T00:03:18;19.90;77.50
17495;DHT22;8864;51.970;4.614;2022-10-17T00:05:46;19.90;77.60
17495;DHT22;8864;51.970;4.614;2022-10-17T00:08:15;19.90;77.50
17495;DHT22;8864;51.970;4.614;2022-10-17T00:10:42;19.90;77.50
17495;DHT22;8864;51.970;4.614;2022-10-17T00:13:11;19.90;77.60
17495;DHT22;8864;51.970;4.614;2022-10-17T00:15:42;19.80;77.40
17495;DHT22;8864;51.970;4.614;2022-10-17T00:18:11;19.90;77.60
17495;DHT22;8864;51.970;4.614;2022-10-17T00:20:38;19.90;77.50
17495;DHT22;8864;51.970;4.614;2022-10-17T00:23:04;19.90;77.50
17495;DHT22;8864;51.970;4.614;2022-10-17T00:25:31;19.90;77.40
17495;DHT22;8864;51.970;4.614;2022-10-17T00:27:58;19.90;77.40
17495;DHT22;8864;51.970;4.614;2022-10-17T00:30:25;19.90;77.50
17495;DHT22;8864;51.970;4.614;2022-10-17T00:32:53;19.90;77.40
17495;DHT22;8864;51.970;4.614;2022-10-17T00:35:20;19.90;77.40
17495;DHT22;8864;51.970;4.614;2022-10-17T00:37:46;19.90;77.40
17495;DHT22;8864;51.970;4.614;2022-10-17T00:40:19;19.90;77.50
17495;DHT22;8864;51.970;4.614;2022-10-17T00:42:46;19.80;77.60
17495;DHT22;8864;51.970;4.614;2022-10-17T00:45:26;19.90;77.60
17495;DHT22;8864;51.970;4.614;2022-10-17T00:47:59;19.90;77.50
17495;DHT22;8864;51.970;4.614;2022-10-17T00:50:27;19.90;77.60
17495;DHT22;8864;51.970;4.614;2022-10-17T00:52:55;19.90;77.60
17495;DHT22;8864;51.970;4.614;2022-10-17T00:55:26;19.90;77.60
17495;DHT22;8864;51.970;4.614;2022-10-17T00:57:56;19.90;77.60
17495;DHT22;8864;51.970;4.614;2022-10-17T01:00:23;19.90;77.50
17495;DHT22;8864;51.970;4.614;2022-10-17T01:02:50;19.90;77.60
17495;DHT22;8864;51.970;4.614;2022-10-17T01:05:19;19.90;77.60
17495;DHT22;8864;51.970;4.614;2022-10-17T01:07:47;19.90;77.60
17495;DHT22;8864;51.970;4.614;2022-10-17T01:10:15;19.90;77.50
17495;DHT22;8864;51.970;4.614;2022-10-17T01:12:51;20.00;77.60
17495;DHT22;8864;51.970;4.614;2022-10-17T01:15:34;19.80;77.50
17495;DHT22;8864;51.970;4.614;2022-10-17T01:18:18;19.90;77.60
17495;DHT22;8864;51.970;4.614;2022-10-17T01:21:31;19.90;77.50
17495;DHT22;8864;51.970;4.614;2022-10-17T01:33:23;19.80;77.60
17495;DHT22;8864;51.970;4.614;2022-10-17T01:35:57;19.80;77.60
17495;DHT22;8864;51.970;4.614;2022-10-17T01:38:29;19.90;77.70
17495;DHT22;8864;51.970;4.614;2022-10-17T01:41:02;19.80;77.60
17495;DHT22;8864;51.970;4.614;2022-10-17T01:43:40;19.80;77.60
17495;DHT22;8864;51.970;4.614;2022-10-17T01:46:14;19.90;77.60
17495;DHT22;8864;51.970;4.614;2022-10-17T01:48:45;19.80;77.60
17495;DHT22;8864;51.970;4.614;2022-10-17T01:51:24;19.80;77.50
17495;DHT22;8864;51.970;4.614;2022-10-17T01:54:08;19.80;77.60
17495;DHT22;8864;51.970;4.614;2022-10-17T01:56:38;20.00;77.70
17495;DHT22;8864;51.970;4.614;2022-10-17T01:59:11;19.80;77.50
17495;DHT22;8864;51.970;4.614;2022-10-17T02:01:48;19.80;77.50
17495;DHT22;8864;51.970;4.614;2022-10-17T02:04:27;19.90;77.50
17495;DHT22;8864;51.970;4.614;2022-10-17T02:07:23;19.80;77.50
17495;DHT22;8864;51.970;4.614;2022-10-17T02:09:54;19.80;77.60
17495;DHT22;8864;51.970;4.614;2022-10-17T02:12:40;19.80;77.50
17495;DHT22;8864;51.970;4.614;2022-10-17T02:15:44;19.90;77.60
17495;DHT22;8864;51.970;4.614;2022-10-17T02:19:00;19.80;77.50
17495;DHT22;8864;51.970;4.614;2022-10-17T02:21:52;19.80;77.60
17495;DHT22;8864;51.970;4.614;2022-10-17T02:24:29;19.80;77.60
17495;DHT22;8864;51.970;4.614;2022-10-17T02:27:04;19.80;77.70
17495;DHT22;8864;51.970;4.614;2022-10-17T02:29:35;19.80;77.70
17495;DHT22;8864;51.970;4.614;2022-10-17T02:32:07;19.80;77.70
17495;DHT22;8864;51.970;4.614;2022-10-17T02:34:37;19.80;77.70
17495;DHT22;8864;51.970;4.614;2022-10-17T02:37:13;19.80;77.60
17495;DHT22;8864;51.970;4.614;2022-10-17T02:39:42;19.80;77.70
17495;DHT22;8864;51.970;4.614;2022-10-17T02:42:17;19.80;77.60
17495;DHT22;8864;51.970;4.614;2022-10-17T02:44:45;19.80;77.70
17495;DHT22;8864;51.970;4.614;2022-10-17T02:47:17;19.90;77.60
17495;DHT22;8864;51.970;4.614;2022-10-17T02:49:49;19.90;77.60
17495;DHT22;8864;51.970;4.614;2022-10-17T02:52:23;19.80;77.70
17495;DHT22;8864;51.970;4.614;2022-10-17T02:54:56;19.80;77.70
17495;DHT22;8864;51.970;4.614;2022-10-17T02:57:29;19.90;77.70
17495;DHT22;8864;51.970;4.614;2022-10-17T02:59:58;19.80;77.70
17495;DHT22;8864;51.970;4.614;2022-10-17T03:02:37;19.80;77.70
17495;DHT22;8864;51.970;4.614;2022-10-17T03:05:17;19.80;77.70
17495;DHT22;8864;51.970;4.614;2022-10-17T03:07:46;19.80;77.70
17495;DHT22;8864;51.970;4.614;2022-10-17T03:10:13;19.80;77.80
17495;DHT22;8864;51.970;4.614;2022-10-17T03:12:39;19.80;77.70
17495;DHT22;8864;51.970;4.614;2022-10-17T03:15:09;19.90;77.90
17495;DHT22;8864;51.970;4.614;2022-10-17T03:17:46;19.80;77.90
17495;DHT22;8864;51.970;4.614;2022-10-17T03:20:19;19.80;77.90
17495;DHT22;8864;51.970;4.614;2022-10-17T03:22:50;19.80;77.90
17495;DHT22;8864;51.970;4.614;2022-10-17T03:25:17;19.80;78.10
17495;DHT22;8864;51.970;4.614;2022-10-17T03:27:44;19.80;78.20
17495;DHT22;8864;51.970;4.614;2022-10-17T03:30:10;19.80;78.20
17495;DHT22;8864;51.970;4.614;2022-10-17T03:32:37;19.80;78.30
17495;DHT22;8864;51.970;4.614;2022-10-17T03:35:13;19.80;78.30
17495;DHT22;8864;51.970;4.614;2022-10-17T03:37:44;19.90;78.20
17495;DHT22;8864;51.970;4.614;2022-10-17T03:40:18;19.80;78.30
17495;DHT22;8864;51.970;4.614;2022-10-17T03:42:51;19.80;78.30
17495;DHT22;8864;51.970;4.614;2022-10-17T03:45:18;19.80;78.30
17495;DHT22;8864;51.970;4.614;2022-10-17T03:47:44;19.90;78.40
17495;DHT22;8864;51.970;4.614;2022-10-17T03:50:11;19.80;78.50
17495;DHT22;8864;51.970;4.614;2022-10-17T03:52:38;19.90;78.50
17495;DHT22;8864;51.970;4.614;2022-10-17T03:55:05;19.80;78.50
17495;DHT22;8864;51.970;4.614;2022-10-17T03:57:34;19.80;78.50
17495;DHT22;8864;51.970;4.614;2022-10-17T04:00:02;19.80;79.30
17495;DHT22;8864;51.970;4.614;2022-10-17T04:02:29;19.80;78.50
17495;DHT22;8864;51.970;4.614;2022-10-17T04:04:56;19.80;78.60
17495;DHT22;8864;51.970;4.614;2022-10-17T04:07:23;19.90;78.60
17495;DHT22;8864;51.970;4.614;2022-10-17T04:09:56;19.80;78.60
17495;DHT22;8864;51.970;4.614;2022-10-17T04:12:23;19.80;78.60
17495;DHT22;8864;51.970;4.614;2022-10-17T04:14:52;19.80;78.70
17495;DHT22;8864;51.970;4.614;2022-10-17T04:17:19;19.80;78.70
17495;DHT22;8864;51.970;4.614;2022-10-17T04:20:06;19.80;78.70
17495;DHT22;8864;51.970;4.614;2022-10-17T04:22:33;19.80;78.60
17495;DHT22;8864;51.970;4.614;2022-10-17T04:25:00;19.90;78.80
17495;DHT22;8864;51.970;4.614;2022-10-17T04:27:27;19.80;78.80
17495;DHT22;8864;51.970;4.614;2022-10-17T04:29:55;19.90;78.80
17495;DHT22;8864;51.970;4.614;2022-10-17T04:32:22;19.90;78.80
17495;DHT22;8864;51.970;4.614;2022-10-17T04:34:50;19.80;78.80
17495;DHT22;8864;51.970;4.614;2022-10-17T04:37:18;19.90;78.90
17495;DHT22;8864;51.970;4.614;2022-10-17T04:39:45;19.90;79.00
17495;DHT22;8864;51.970;4.614;2022-10-17T04:42:12;19.80;79.00
17495;DHT22;8864;51.970;4.614;2022-10-17T04:44:39;19.90;79.10
17495;DHT22;8864;51.970;4.614;2022-10-17T04:47:07;19.80;79.00
17495;DHT22;8864;51.970;4.614;2022-10-17T04:49:34;19.90;79.10
17495;DHT22;8864;51.970;4.614;2022-10-17T04:52:00;19.80;79.10
17495;DHT22;8864;51.970;4.614;2022-10-17T04:54:27;19.90;79.00
17495;DHT22;8864;51.970;4.614;2022-10-17T04:56:54;19.80;79.10
17495;DHT22;8864;51.970;4.614;2022-10-17T04:59:21;19.80;79.10
17495;DHT22;8864;51.970;4.614;2022-10-17T05:02:03;19.80;79.20
17495;DHT22;8864;51.970;4.614;2022-10-17T05:04:31;19.90;79.30
17495;DHT22;8864;51.970;4.614;2022-10-17T05:07:04;19.80;79.30
17495;DHT22;8864;51.970;4.614;2022-10-17T05:09:30;19.80;79.30
17495;DHT22;8864;51.970;4.614;2022-10-17T05:11:57;19.80;79.10
17495;DHT22;8864;51.970;4.614;2022-10-17T05:14:24;19.80;79.30
17495;DHT22;8864;51.970;4.614;2022-10-17T05:16:51;19.80;79.30
17495;DHT22;8864;51.970;4.614;2022-10-17T05:19:18;19.80;79.30
17495;DHT22;8864;51.970;4.614;2022-10-17T05:22:00;19.80;79.30
17495;DHT22;8864;51.970;4.614;2022-10-17T05:24:27;19.80;79.40
17495;DHT22;8864;51.970;4.614;2022-10-17T05:26:53;19.80;79.40
17495;DHT22;8864;51.970;4.614;2022-10-17T05:29:20;19.80;79.40
17495;DHT22;8864;51.970;4.614;2022-10-17T05:31:47;19.80;79.40
17495;DHT22;8864;51.970;4.614;2022-10-17T05:34:16;19.80;79.40
17495;DHT22;8864;51.970;4.614;2022-10-17T05:36:43;19.80;79.40
17495;DHT22;8864;51.970;4.614;2022-10-17T05:39:12;19.80;79.60
17495;DHT22;8864;51.970;4.614;2022-10-17T05:41:44;19.80;79.60
17495;DHT22;8864;51.970;4.614;2022-10-17T05:44:15;19.80;79.60
17495;DHT22;8864;51.970;4.614;2022-10-17T05:46:41;19.80;79.60
17495;DHT22;8864;51.970;4.614;2022-10-17T05:49:08;19.80;79.60
17495;DHT22;8864;51.970;4.614;2022-10-17T05:51:54;19.90;79.80
17495;DHT22;8864;51.970;4.614;2022-10-17T05:54:24;20.00;79.70
17495;DHT22;8864;51.970;4.614;2022-10-17T05:56:53;19.80;79.60
17495;DHT22;8864;51.970;4.614;2022-10-17T05:59:23;19.80;79.60
17495;DHT22;8864;51.970;4.614;2022-10-17T06:01:56;19.90;80.10
17495;DHT22;8864;51.970;4.614;2022-10-17T06:04:23;19.90;80.00
17495;DHT22;8864;51.970;4.614;2022-10-17T06:06:57;19.80;80.10
17495;DHT22;8864;51.970;4.614;2022-10-17T06:09:25;19.90;80.00
17495;DHT22;8864;51.970;4.614;2022-10-17T06:11:52;19.90;80.00
17495;DHT22;8864;51.970;4.614;2022-10-17T06:14:18;19.90;80.00
17495;DHT22;8864;51.970;4.614;2022-10-17T06:16:46;19.90;80.00
17495;DHT22;8864;51.970;4.614;2022-10-17T06:19:13;19.80;79.70
17495;DHT22;8864;51.970;4.614;2022-10-17T06:21:39;19.80;79.70
17495;DHT22;8864;51.970;4.614;2022-10-17T06:24:11;19.90;79.70
17495;DHT22;8864;51.970;4.614;2022-10-17T06:26:39;19.90;79.70
17495;DHT22;8864;51.970;4.614;2022-10-17T06:29:06;19.90;79.70
17495;DHT22;8864;51.970;4.614;2022-10-17T06:31:33;19.80;79.70
17495;DHT22;8864;51.970;4.614;2022-10-17T06:34:04;19.80;79.70
17495;DHT22;8864;51.970;4.614;2022-10-17T06:36:30;19.80;79.70
17495;DHT22;8864;51.970;4.614;2022-10-17T06:38:57;19.90;79.70
17495;DHT22;8864;51.970;4.614;2022-10-17T06:41:24;19.90;79.70
17495;DHT22;8864;51.970;4.614;2022-10-17T06:43:53;19.90;79.70
17495;DHT22;8864;51.970;4.614;2022-10-17T06:46:32;19.80;79.50
17495;DHT22;8864;51.970;4.614;2022-10-17T06:48:59;19.90;79.70
17495;DHT22;8864;51.970;4.614;2022-10-17T06:51:26;19.80;79.50
17495;DHT22;8864;51.970;4.614;2022-10-17T06:53:53;19.80;79.70
17495;DHT22;8864;51.970;4.614;2022-10-17T06:56:19;20.00;79.80
17495;DHT22;8864;51.970;4.614;2022-10-17T06:58:46;19.80;80.00
17495;DHT22;8864;51.970;4.614;2022-10-17T07:01:16;19.90;79.90
17495;DHT22;8864;51.970;4.614;2022-10-17T07:03:46;19.90;80.20
17495;DHT22;8864;51.970;4.614;2022-10-17T07:06:13;19.90;80.30
17495;DHT22;8864;51.970;4.614;2022-10-17T07:08:41;19.90;80.30
17495;DHT22;8864;51.970;4.614;2022-10-17T07:11:09;20.00;80.30
17495;DHT22;8864;51.970;4.614;2022-10-17T07:13:38;19.90;80.50
17495;DHT22;8864;51.970;4.614;2022-10-17T07:16:06;20.00;80.60
17495;DHT22;8864;51.970;4.614;2022-10-17T07:18:34;20.00;80.80
17495;DHT22;8864;51.970;4.614;2022-10-17T07:21:02;20.10;80.50
17495;DHT22;8864;51.970;4.614;2022-10-17T07:23:29;20.10;80.60
17495;DHT22;8864;51.970;4.614;2022-10-17T07:25:59;20.10;80.20
17495;DHT22;8864;51.970;4.614;2022-10-17T07:28:26;20.10;80.00
17495;DHT22;8864;51.970;4.614;2022-10-17T07:30:53;20.10;79.90
17495;DHT22;8864;51.970;4.614;2022-10-17T07:33:20;20.00;80.50
17495;DHT22;8864;51.970;4.614;2022-10-17T07:35:48;20.10;80.40
17495;DHT22;8864;51.970;4.614;2022-10-17T07:38:17;20.10;80.50
17495;DHT22;8864;51.970;4.614;2022-10-17T07:40:43;20.10;80.30
17495;DHT22;8864;51.970;4.614;2022-10-17T07:43:10;20.00;80.10
17495;DHT22;8864;51.970;4.614;2022-10-17T07:45:37;20.10;80.10
17495;DHT22;8864;51.970;4.614;2022-10-17T07:48:04;20.00;80.20
17495;DHT22;8864;51.970;4.614;2022-10-17T07:50:31;20.00;80.10
17495;DHT22;8864;51.970;4.614;2022-10-17T07:52:59;20.00;81.10
17495;DHT22;8864;51.970;4.614;2022-10-17T07:55:26;20.00;80.50
17495;DHT22;8864;51.970;4.614;2022-10-17T07:57:53;20.00;80.70
17495;DHT22;8864;51.970;4.614;2022-10-17T08:00:26;20.00;81.00
17495;DHT22;8864;51.970;4.614;2022-10-17T08:02:53;20.00;81.10
17495;DHT22;8864;51.970;4.614;2022-10-17T08:05:19;20.00;81.00
17495;DHT22;8864;51.970;4.614;2022-10-17T08:07:46;20.00;80.80
17495;DHT22;8864;51.970;4.614;2022-10-17T08:10:15;20.00;80.80
17495;DHT22;8864;51.970;4.614;2022-10-17T08:12:42;20.00;80.80
17495;DHT22;8864;51.970;4.614;2022-10-17T08:15:09;20.00;81.00
17495;DHT22;8864;51.970;4.614;2022-10-17T08:17:37;20.00;80.80
17495;DHT22;8864;51.970;4.614;2022-10-17T08:20:05;20.00;80.60
17495;DHT22;8864;51.970;4.614;2022-10-17T08:22:32;20.00;80.50
17495;DHT22;8864;51.970;4.614;2022-10-17T08:24:59;20.00;80.50
17495;DHT22;8864;51.970;4.614;2022-10-17T08:27:27;20.00;80.50
17495;DHT22;8864;51.970;4.614;2022-10-17T08:29:54;20.00;80.60
17495;DHT22;8864;51.970;4.614;2022-10-17T08:32:22;20.00;81.30
17495;DHT22;8864;51.970;4.614;2022-10-17T08:34:50;20.10;81.10
17495;DHT22;8864;51.970;4.614;2022-10-17T08:37:17;20.00;81.50
17495;DHT22;8864;51.970;4.614;2022-10-17T08:39:44;20.00;81.60
17495;DHT22;8864;51.970;4.614;2022-10-17T08:42:33;20.00;81.70
17495;DHT22;8864;51.970;4.614;2022-10-17T08:45:11;20.00;81.90
17495;DHT22;8864;51.970;4.614;2022-10-17T08:47:44;20.00;81.40
17495;DHT22;8864;51.970;4.614;2022-10-17T08:50:15;20.00;81.30
17495;DHT22;8864;51.970;4.614;2022-10-17T08:52:46;20.00;81.30
17495;DHT22;8864;51.970;4.614;2022-10-17T08:55:17;20.10;81.40
17495;DHT22;8864;51.970;4.614;2022-10-17T08:57:48;20.10;81.50
17495;DHT22;8864;51.970;4.614;2022-10-17T09:00:17;20.10;81.40
17495;DHT22;8864;51.970;4.614;2022-10-17T09:02:53;20.10;81.40
17495;DHT22;8864;51.970;4.614;2022-10-17T09:05:34;20.10;81.30
17495;DHT22;8864;51.970;4.614;2022-10-17T09:08:08;20.10;81.60
17495;DHT22;8864;51.970;4.614;2022-10-17T09:10:46;20.10;81.80
17495;DHT22;8864;51.970;4.614;2022-10-17T09:13:41;20.00;81.50
17495;DHT22;8864;51.970;4.614;2022-10-17T09:16:27;20.10;81.40
17495;DHT22;8864;51.970;4.614;2022-10-17T09:19:02;20.10;81.30
17495;DHT22;8864;51.970;4.614;2022-10-17T09:21:38;20.10;81.30
17495;DHT22;8864;51.970;4.614;2022-10-17T09:24:12;20.10;81.00
17495;DHT22;8864;51.970;4.614;2022-10-17T09:26:41;20.10;81.10
17495;DHT22;8864;51.970;4.614;2022-10-17T09:29:15;20.10;81.00
17495;DHT22;8864;51.970;4.614;2022-10-17T09:31:46;20.20;81.00
17495;DHT22;8864;51.970;4.614;2022-10-17T09:34:15;20.10;80.80
17495;DHT22;8864;51.970;4.614;2022-10-17T09:36:42;20.10;80.60
17495;DHT22;8864;51.970;4.614;2022-10-17T09:39:12;20.10;80.70
17495;DHT22;8864;51.970;4.614;2022-10-17T09:41:42;20.20;80.80
17495;DHT22;8864;51.970;4.614;2022-10-17T09:44:15;20.10;80.50
17495;DHT22;8864;51.970;4.614;2022-10-17T09:46:58;20.10;80.50
17495;DHT22;8864;51.970;4.614;2022-10-17T09:49:31;20.20;80.30
17495;DHT22;8864;51.970;4.614;2022-10-17T09:51:59;20.20;80.30
17495;DHT22;8864;51.970;4.614;2022-10-17T09:54:38;20.10;80.10
17495;DHT22;8864;51.970;4.614;2022-10-17T09:57:08;20.20;80.20
17495;DHT22;8864;51.970;4.614;2022-10-17T09:59:38;20.10;80.10
17495;DHT22;8864;51.970;4.614;2022-10-17T10:02:15;20.20;80.50
17495;DHT22;8864;51.970;4.614;2022-10-17T10:05:01;20.20;80.60
17495;DHT22;8864;51.970;4.614;2022-10-17T10:07:30;20.20;80.50
17495;DHT22;8864;51.970;4.614;2022-10-17T10:09:58;20.20;80.30
17495;DHT22;8864;51.970;4.614;2022-10-17T10:12:27;20.20;80.40
17495;DHT22;8864;51.970;4.614;2022-10-17T10:14:56;20.20;80.60
17495;DHT22;8864;51.970;4.614;2022-10-17T10:17:35;20.20;80.60
17495;DHT22;8864;51.970;4.614;2022-10-17T10:23:05;20.20;80.80
17495;DHT22;8864;51.970;4.614;2022-10-17T10:25:32;20.20;80.90
17495;DHT22;8864;51.970;4.614;2022-10-17T10:28:00;20.20;81.00
17495;DHT22;8864;51.970;4.614;2022-10-17T10:30:29;20.20;81.10
17495;DHT22;8864;51.970;4.614;2022-10-17T10:32:58;20.20;81.30
17495;DHT22;8864;51.970;4.614;2022-10-17T10:35:32;20.20;81.80
17495;DHT22;8864;51.970;4.614;2022-10-17T10:38:01;20.30;82.60
17495;DHT22;8864;51.970;4.614;2022-10-17T10:40:31;20.30;82.20
17495;DHT22;8864;51.970;4.614;2022-10-17T10:43:02;20.30;82.00
17495;DHT22;8864;51.970;4.614;2022-10-17T10:45:41;20.30;81.90
17495;DHT22;8864;51.970;4.614;2022-10-17T10:48:18;20.30;81.90
17495;DHT22;8864;51.970;4.614;2022-10-17T10:50:49;20.30;82.00
17495;DHT22;8864;51.970;4.614;2022-10-17T10:53:40;20.30;82.10
17495;DHT22;8864;51.970;4.614;2022-10-17T10:56:13;20.30;82.20
17495;DHT22;8864;51.970;4.614;2022-10-17T10:58:52;20.30;82.40
17495;DHT22;8864;51.970;4.614;2022-10-17T11:01:27;20.30;82.50
17495;DHT22;8864;51.970;4.614;2022-10-17T11:04:19;20.30;83.40
17495;DHT22;8864;51.970;4.614;2022-10-17T11:06:49;20.30;82.70
17495;DHT22;8864;51.970;4.614;2022-10-17T11:09:24;20.30;82.70
17495;DHT22;8864;51.970;4.614;2022-10-17T11:11:56;20.30;82.60
17495;DHT22;8864;51.970;4.614;2022-10-17T11:14:35;20.30;82.60
17495;DHT22;8864;51.970;4.614;2022-10-17T11:17:14;20.30;82.70
17495;DHT22;8864;51.970;4.614;2022-10-17T11:19:47;20.30;82.90
17495;DHT22;8864;51.970;4.614;2022-10-17T11:22:22;20.30;83.00
17495;DHT22;8864;51.970;4.614;2022-10-17T11:24:55;20.30;83.10
17495;DHT22;8864;51.970;4.614;2022-10-17T11:27:25;20.30;83.10
17495;DHT22;8864;51.970;4.614;2022-10-17T11:29:53;20.30;83.00
17495;DHT22;8864;51.970;4.614;2022-10-17T11:32:26;20.30;83.70
17495;DHT22;8864;51.970;4.614;2022-10-17T11:34:58;20.30;82.90
17495;DHT22;8864;51.970;4.614;2022-10-17T11:37:28;20.30;82.90
17495;DHT22;8864;51.970;4.614;2022-10-17T11:39:59;20.30;82.70
17495;DHT22;8864;51.970;4.614;2022-10-17T11:42:31;20.30;82.80
17495;DHT22;8864;51.970;4.614;2022-10-17T11:45:03;20.40;82.90
17495;DHT22;8864;51.970;4.614;2022-10-17T11:47:38;20.40;82.80
17495;DHT22;8864;51.970;4.614;2022-10-17T11:50:21;20.40;82.90
17495;DHT22;8864;51.970;4.614;2022-10-17T11:52:51;20.40;82.80
17495;DHT22;8864;51.970;4.614;2022-10-17T11:55:21;20.40;82.80
17495;DHT22;8864;51.970;4.614;2022-10-17T11:57:55;20.40;83.60
17495;DHT22;8864;51.970;4.614;2022-10-17T12:00:32;20.40;82.50
17495;DHT22;8864;51.970;4.614;2022-10-17T12:03:11;20.50;82.40
17495;DHT22;8864;51.970;4.614;2022-10-17T12:05:43;20.50;82.80
17495;DHT22;8864;51.970;4.614;2022-10-17T12:08:19;20.50;82.80
17495;DHT22;8864;51.970;4.614;2022-10-17T12:10:54;20.60;82.30
17495;DHT22;8864;51.970;4.614;2022-10-17T12:13:47;20.60;82.10
17495;DHT22;8864;51.970;4.614;2022-10-17T12:16:49;20.60;81.70
17495;DHT22;8864;51.970;4.614;2022-10-17T12:22:22;20.70;82.20
17495;DHT22;8864;51.970;4.614;2022-10-17T12:24:58;20.70;82.00
17495;DHT22;8864;51.970;4.614;2022-10-17T12:27:37;20.70;82.10
17495;DHT22;8864;51.970;4.614;2022-10-17T12:30:16;20.70;81.90
17495;DHT22;8864;51.970;4.614;2022-10-17T12:32:58;20.80;81.60
17495;DHT22;8864;51.970;4.614;2022-10-17T12:35:29;20.80;81.70
17495;DHT22;8864;51.970;4.614;2022-10-17T12:38:00;20.80;81.70
17495;DHT22;8864;51.970;4.614;2022-10-17T12:40:50;20.80;81.40
17495;DHT22;8864;51.970;4.614;2022-10-17T12:43:36;20.80;81.40
17495;DHT22;8864;51.970;4.614;2022-10-17T12:46:08;20.80;81.40
17495;DHT22;8864;51.970;4.614;2022-10-17T12:49:00;20.90;81.50
17495;DHT22;8864;51.970;4.614;2022-10-17T12:51:28;20.90;81.50
17495;DHT22;8864;51.970;4.614;2022-10-17T12:54:16;20.90;81.60
17495;DHT22;8864;51.970;4.614;2022-10-17T12:56:44;20.90;81.50
17495;DHT22;8864;51.970;4.614;2022-10-17T12:59:14;20.90;81.70
17495;DHT22;8864;51.970;4.614;2022-10-17T13:01:45;20.90;81.70
17495;DHT22;8864;51.970;4.614;2022-10-17T13:04:12;21.00;81.60
17495;DHT22;8864;51.970;4.614;2022-10-17T13:06:45;21.00;81.40
17495;DHT22;8864;51.970;4.614;2022-10-17T13:09:22;21.00;81.10
17495;DHT22;8864;51.970;4.614;2022-10-17T13:11:50;21.00;80.90
17495;DHT22;8864;51.970;4.614;2022-10-17T13:14:20;21.00;80.80
17495;DHT22;8864;51.970;4.614;2022-10-17T13:16:53;21.00;80.60
17495;DHT22;8864;51.970;4.614;2022-10-17T13:19:23;21.00;80.50
17495;DHT22;8864;51.970;4.614;2022-10-17T13:21:53;20.90;80.40
17495;DHT22;8864;51.970;4.614;2022-10-17T13:24:28;21.00;80.30
17495;DHT22;8864;51.970;4.614;2022-10-17T13:26:56;21.00;80.80
17495;DHT22;8864;51.970;4.614;2022-10-17T13:29:23;21.00;81.30
17495;DHT22;8864;51.970;4.614;2022-10-17T13:31:52;21.00;81.40
17495;DHT22;8864;51.970;4.614;2022-10-17T13:34:20;21.00;81.60
17495;DHT22;8864;51.970;4.614;2022-10-17T13:36:53;21.00;81.50
17495;DHT22;8864;51.970;4.614;2022-10-17T13:39:22;21.00;81.60
17495;DHT22;8864;51.970;4.614;2022-10-17T13:41:50;21.00;81.50
17495;DHT22;8864;51.970;4.614;2022-10-17T13:44:19;21.00;81.50
17495;DHT22;8864;51.970;4.614;2022-10-17T13:46:47;21.00;81.40
17495;DHT22;8864;51.970;4.614;2022-10-17T13:49:18;21.10;82.30
17495;DHT22;8864;51.970;4.614;2022-10-17T13:51:47;21.10;81.30
17495;DHT22;8864;51.970;4.614;2022-10-17T13:54:34;21.10;81.20
17495;DHT22;8864;51.970;4.614;2022-10-17T13:57:03;21.10;81.30
17495;DHT22;8864;51.970;4.614;2022-10-17T13:59:35;21.10;81.30
17495;DHT22;8864;51.970;4.614;2022-10-17T14:02:03;21.10;81.20
17495;DHT22;8864;51.970;4.614;2022-10-17T14:04:39;21.10;81.10
17495;DHT22;8864;51.970;4.614;2022-10-17T14:07:20;21.20;81.20
17495;DHT22;8864;51.970;4.614;2022-10-17T14:09:50;21.20;81.10
17495;DHT22;8864;51.970;4.614;2022-10-17T14:12:19;21.20;81.00
17495;DHT22;8864;51.970;4.614;2022-10-17T14:14:48;21.20;80.90
17495;DHT22;8864;51.970;4.614;2022-10-17T14:17:21;21.20;80.80
17495;DHT22;8864;51.970;4.614;2022-10-17T14:19:51;21.30;80.60
17495;DHT22;8864;51.970;4.614;2022-10-17T14:22:26;21.30;80.50
17495;DHT22;8864;51.970;4.614;2022-10-17T14:24:54;21.30;80.50
17495;DHT22;8864;51.970;4.614;2022-10-17T14:27:27;21.30;80.60
17495;DHT22;8864;51.970;4.614;2022-10-17T14:29:55;21.30;80.80
17495;DHT22;8864;51.970;4.614;2022-10-17T14:32:25;21.30;80.80
17495;DHT22;8864;51.970;4.614;2022-10-17T14:34:54;21.30;81.00
17495;DHT22;8864;51.970;4.614;2022-10-17T14:37:30;21.30;80.90
17495;DHT22;8864;51.970;4.614;2022-10-17T14:40:00;21.30;80.90
17495;DHT22;8864;51.970;4.614;2022-10-17T14:42:28;21.30;81.00
17495;DHT22;8864;51.970;4.614;2022-10-17T14:44:59;21.30;81.00
17495;DHT22;8864;51.970;4.614;2022-10-17T14:47:29;21.30;81.00
17495;DHT22;8864;51.970;4.614;2022-10-17T14:50:03;21.30;80.90
17495;DHT22;8864;51.970;4.614;2022-10-17T14:52:32;21.30;80.80
17495;DHT22;8864;51.970;4.614;2022-10-17T14:55:20;21.30;80.80
17495;DHT22;8864;51.970;4.614;2022-10-17T14:57:47;21.30;80.60
17495;DHT22;8864;51.970;4.614;2022-10-17T15:00:16;21.40;80.90
17495;DHT22;8864;51.970;4.614;2022-10-17T15:02:44;21.30;81.00
17495;DHT22;8864;51.970;4.614;2022-10-17T15:05:11;21.40;81.00
17495;DHT22;8864;51.970;4.614;2022-10-17T15:07:38;21.40;81.00
17495;DHT22;8864;51.970;4.614;2022-10-17T15:10:27;21.40;81.00
17495;DHT22;8864;51.970;4.614;2022-10-17T15:12:54;21.40;80.70
17495;DHT22;8864;51.970;4.614;2022-10-17T15:15:21;21.40;80.70
17495;DHT22;8864;51.970;4.614;2022-10-17T15:17:48;21.40;80.60
17495;DHT22;8864;51.970;4.614;2022-10-17T15:20:16;21.40;80.60
17495;DHT22;8864;51.970;4.614;2022-10-17T15:22:44;21.40;80.60
17495;DHT22;8864;51.970;4.614;2022-10-17T15:25:12;21.40;80.60
17495;DHT22;8864;51.970;4.614;2022-10-17T15:27:39;21.40;80.60
17495;DHT22;8864;51.970;4.614;2022-10-17T15:30:16;21.40;80.60
17495;DHT22;8864;51.970;4.614;2022-10-17T15:32:43;21.40;80.60
17495;DHT22;8864;51.970;4.614;2022-10-17T15:35:10;21.40;80.60
17495;DHT22;8864;51.970;4.614;2022-10-17T15:37:37;21.40;80.60
17495;DHT22;8864;51.970;4.614;2022-10-17T15:40:06;21.40;80.60
17495;DHT22;8864;51.970;4.614;2022-10-17T15:42:34;21.30;80.30
17495;DHT22;8864;51.970;4.614;2022-10-17T15:45:01;21.30;80.20
17495;DHT22;8864;51.970;4.614;2022-10-17T15:47:29;21.30;80.20
17495;DHT22;8864;51.970;4.614;2022-10-17T15:49:58;21.30;80.00
17495;DHT22;8864;51.970;4.614;2022-10-17T15:52:25;21.30;80.10
17495;DHT22;8864;51.970;4.614;2022-10-17T15:54:52;21.30;80.10
17495;DHT22;8864;51.970;4.614;2022-10-17T15:57:22;21.20;80.00
17495;DHT22;8864;51.970;4.614;2022-10-17T15:59:52;21.20;80.20
17495;DHT22;8864;51.970;4.614;2022-10-17T16:02:21;21.20;80.10
17495;DHT22;8864;51.970;4.614;2022-10-17T16:04:49;21.20;80.10
17495;DHT22;8864;51.970;4.614;2022-10-17T16:07:16;21.10;80.00
17495;DHT22;8864;51.970;4.614;2022-10-17T16:09:43;21.10;80.00
17495;DHT22;8864;51.970;4.614;2022-10-17T16:12:12;21.10;80.00
17495;DHT22;8864;51.970;4.614;2022-10-17T16:14:40;21.10;80.10
17495;DHT22;8864;51.970;4.614;2022-10-17T16:17:11;21.10;80.10
17495;DHT22;8864;51.970;4.614;2022-10-17T16:19:39;21.00;80.00
17495;DHT22;8864;51.970;4.614;2022-10-17T16:22:05;21.00;80.10
17495;DHT22;8864;51.970;4.614;2022-10-17T16:24:32;21.00;80.10
17495;DHT22;8864;51.970;4.614;2022-10-17T16:26:59;21.00;80.20